sensor_id;sensor_type;location;lat;lon;timestamp;P1;durP1;ratioP1;P2;durP2;ratioP2
63801;SDS011;49949;43.060;25.624;2024-01-10T00:01:23;14.10;;;6.82;;
63801;SDS011;49949;43.060;25.624;2024-01-10T00:03:53;14.05;;;6.35;;
63801;SDS011;49949;43.060;25.624;2024-01-10T00:06:19;16.50;;;6.50;;
63801;SDS011;49949;43.060;25.624;2024-01-10T00:08:45;11.93;;;6.05;;
63801;SDS011;49949;43.060;25.624;2024-01-10T00:11:11;14.27;;;6.35;;
63801;SDS011;49949;43.060;25.624;2024-01-10T00:13:36;25.15;;;6.97;;
63801;SDS011;49949;43.060;25.624;2024-01-10T00:16:02;12.82;;;6.30;;
63801;SDS011;49949;43.060;25.624;2024-01-10T00:18:28;13.35;;;6.55;;
63801;SDS011;49949;43.060;25.624;2024-01-10T00:20:54;16.83;;;6.68;;
63801;SDS011;49949;43.060;25.624;2024-01-10T00:23:20;16.90;;;6.07;;
63801;SDS011;49949;43.060;25.624;2024-01-10T00:25:46;19.35;;;5.78;;
63801;SDS011;49949;43.060;25.624;2024-01-10T00:28:12;12.32;;;5.82;;
63801;SDS011;49949;43.060;25.624;2024-01-10T00:30:38;18.95;;;6.78;;
63801;SDS011;49949;43.060;25.624;2024-01-10T00:33:04;16.58;;;7.57;;
63801;SDS011;49949;43.060;25.624;2024-01-10T00:35:30;13.98;;;7.00;;
63801;SDS011;49949;43.060;25.624;2024-01-10T00:37:56;17.65;;;7.20;;
63801;SDS011;49949;43.060;25.624;2024-01-10T00:40:22;21.58;;;7.30;;
63801;SDS011;49949;43.060;25.624;2024-01-10T00:42:48;13.35;;;5.38;;
63801;SDS011;49949;43.060;25.624;2024-01-10T00:45:15;15.07;;;6.72;;
63801;SDS011;49949;43.060;25.624;2024-01-10T00:47:41;15.60;;;7.75;;
63801;SDS011;49949;43.060;25.624;2024-01-10T00:50:07;12.93;;;6.35;;
63801;SDS011;49949;43.060;25.624;2024-01-10T00:52:33;12.25;;;5.97;;
63801;SDS011;49949;43.060;25.624;2024-01-10T00:54:59;12.18;;;6.60;;
63801;SDS011;49949;43.060;25.624;2024-01-10T00:57:24;15.80;;;6.97;;
63801;SDS011;49949;43.060;25.624;2024-01-10T00:59:50;15.77;;;6.75;;
63801;SDS011;49949;43.060;25.624;2024-01-10T01:02:16;15.20;;;7.53;;
63801;SDS011;49949;43.060;25.624;2024-01-10T01:04:42;15.63;;;7.55;;
63801;SDS011;49949;43.060;25.624;2024-01-10T01:07:07;14.70;;;6.47;;
63801;SDS011;49949;43.060;25.624;2024-01-10T01:09:33;17.20;;;6.82;;
63801;SDS011;49949;43.060;25.624;2024-01-10T01:11:59;15.45;;;6.63;;
63801;SDS011;49949;43.060;25.624;2024-01-10T01:14:25;21.35;;;7.60;;
63801;SDS011;49949;43.060;25.624;2024-01-10T01:16:50;16.52;;;7.38;;
63801;SDS011;49949;43.060;25.624;2024-01-10T01:19:16;16.33;;;8.73;;
63801;SDS011;49949;43.060;25.624;2024-01-10T01:21:42;18.65;;;8.38;;
63801;SDS011;49949;43.060;25.624;2024-01-10T01:24:08;17.73;;;8.57;;
63801;SDS011;49949;43.060;25.624;2024-01-10T01:26:33;22.25;;;7.25;;
63801;SDS011;49949;43.060;25.624;2024-01-10T01:28:59;17.60;;;7.75;;
63801;SDS011;49949;43.060;25.624;2024-01-10T01:31:25;19.23;;;8.32;;
63801;SDS011;49949;43.060;25.624;2024-01-10T01:33:51;21.73;;;8.55;;
63801;SDS011;49949;43.060;25.624;2024-01-10T01:36:16;21.75;;;9.57;;
63801;SDS011;49949;43.060;25.624;2024-01-10T01:38:42;20.20;;;9.30;;
63801;SDS011;49949;43.060;25.624;2024-01-10T01:41:08;30.42;;;9.65;;
63801;SDS011;49949;43.060;25.624;2024-01-10T01:43:34;20.88;;;10.48;;
63801;SDS011;49949;43.060;25.624;2024-01-10T01:46:00;22.38;;;9.63;;
63801;SDS011;49949;43.060;25.624;2024-01-10T01:48:27;19.55;;;9.63;;
63801;SDS011;49949;43.060;25.624;2024-01-10T01:50:57;24.15;;;10.05;;
63801;SDS011;49949;43.060;25.624;2024-01-10T01:53:27;19.38;;;9.80;;
63801;SDS011;49949;43.060;25.624;2024-01-10T01:55:56;20.25;;;10.00;;
63801;SDS011;49949;43.060;25.624;2024-01-10T01:58:24;21.10;;;10.23;;
63801;SDS011;49949;43.060;25.624;2024-01-10T02:00:50;21.75;;;10.18;;
63801;SDS011;49949;43.060;25.624;2024-01-10T02:03:16;20.38;;;9.80;;
63801;SDS011;49949;43.060;25.624;2024-01-10T02:05:42;22.23;;;10.55;;
63801;SDS011;49949;43.060;25.624;2024-01-10T02:08:08;22.05;;;9.73;;
63801;SDS011;49949;43.060;25.624;2024-01-10T02:10:34;20.58;;;10.45;;
63801;SDS011;49949;43.060;25.624;2024-01-10T02:13:00;20.95;;;9.77;;
63801;SDS011;49949;43.060;25.624;2024-01-10T02:15:26;22.15;;;10.13;;
63801;SDS011;49949;43.060;25.624;2024-01-10T02:17:52;27.52;;;10.38;;
63801;SDS011;49949;43.060;25.624;2024-01-10T02:20:18;22.25;;;11.05;;
63801;SDS011;49949;43.060;25.624;2024-01-10T02:22:45;25.55;;;11.18;;
63801;SDS011;49949;43.060;25.624;2024-01-10T02:25:11;24.08;;;10.40;;
63801;SDS011;49949;43.060;25.624;2024-01-10T02:27:38;21.52;;;11.30;;
63801;SDS011;49949;43.060;25.624;2024-01-10T02:30:06;24.58;;;12.07;;
63801;SDS011;49949;43.060;25.624;2024-01-10T02:32:33;29.42;;;13.90;;
63801;SDS011;49949;43.060;25.624;2024-01-10T02:34:59;29.38;;;14.93;;
63801;SDS011;49949;43.060;25.624;2024-01-10T02:37:25;33.15;;;16.52;;
63801;SDS011;49949;43.060;25.624;2024-01-10T02:39:51;31.05;;;15.43;;
63801;SDS011;49949;43.060;25.624;2024-01-10T02:42:17;28.67;;;14.77;;
63801;SDS011;49949;43.060;25.624;2024-01-10T02:44:43;27.85;;;14.20;;
63801;SDS011;49949;43.060;25.624;2024-01-10T02:47:09;28.38;;;13.68;;
63801;SDS011;49949;43.060;25.624;2024-01-10T02:49:37;31.27;;;14.95;;
63801;SDS011;49949;43.060;25.624;2024-01-10T02:52:02;30.73;;;12.38;;
63801;SDS011;49949;43.060;25.624;2024-01-10T02:54:28;29.02;;;14.25;;
63801;SDS011;49949;43.060;25.624;2024-01-10T02:56:54;22.80;;;13.18;;
63801;SDS011;49949;43.060;25.624;2024-01-10T02:59:20;29.88;;;14.23;;
63801;SDS011;49949;43.060;25.624;2024-01-10T03:01:45;26.70;;;13.27;;
63801;SDS011;49949;43.060;25.624;2024-01-10T03:04:11;27.23;;;12.85;;
63801;SDS011;49949;43.060;25.624;2024-01-10T03:06:37;24.33;;;12.60;;
63801;SDS011;49949;43.060;25.624;2024-01-10T03:09:02;23.13;;;13.02;;
63801;SDS011;49949;43.060;25.624;2024-01-10T03:11:28;26.25;;;13.80;;
63801;SDS011;49949;43.060;25.624;2024-01-10T03:14:29;28.92;;;13.73;;
63801;SDS011;49949;43.060;25.624;2024-01-10T03:16:47;24.23;;;12.35;;
63801;SDS011;49949;43.060;25.624;2024-01-10T03:19:13;28.63;;;13.68;;
63801;SDS011;49949;43.060;25.624;2024-01-10T03:21:39;29.05;;;12.93;;
63801;SDS011;49949;43.060;25.624;2024-01-10T03:24:05;27.10;;;13.68;;
63801;SDS011;49949;43.060;25.624;2024-01-10T03:26:31;22.92;;;11.27;;
63801;SDS011;49949;43.060;25.624;2024-01-10T03:28:56;25.63;;;12.73;;
63801;SDS011;49949;43.060;25.624;2024-01-10T03:31:23;27.88;;;13.20;;
63801;SDS011;49949;43.060;25.624;2024-01-10T03:33:49;25.42;;;13.43;;
63801;SDS011;49949;43.060;25.624;2024-01-10T03:36:16;26.80;;;13.57;;
63801;SDS011;49949;43.060;25.624;2024-01-10T03:38:42;38.13;;;17.05;;
63801;SDS011;49949;43.060;25.624;2024-01-10T03:41:15;28.65;;;14.55;;
63801;SDS011;49949;43.060;25.624;2024-01-10T03:43:42;26.10;;;13.68;;
63801;SDS011;49949;43.060;25.624;2024-01-10T03:46:09;32.25;;;14.57;;
63801;SDS011;49949;43.060;25.624;2024-01-10T03:48:35;33.63;;;15.32;;
63801;SDS011;49949;43.060;25.624;2024-01-10T03:51:02;36.95;;;16.50;;
63801;SDS011;49949;43.060;25.624;2024-01-10T03:53:28;32.92;;;13.98;;
63801;SDS011;49949;43.060;25.624;2024-01-10T03:55:53;27.40;;;15.13;;
63801;SDS011;49949;43.060;25.624;2024-01-10T03:58:20;24.73;;;13.45;;
63801;SDS011;49949;43.060;25.624;2024-01-10T04:00:45;34.33;;;16.48;;
63801;SDS011;49949;43.060;25.624;2024-01-10T04:03:11;39.33;;;17.75;;
63801;SDS011;49949;43.060;25.624;2024-01-10T04:05:37;45.25;;;21.42;;
63801;SDS011;49949;43.060;25.624;2024-01-10T04:08:02;47.80;;;21.15;;
63801;SDS011;49949;43.060;25.624;2024-01-10T04:10:28;42.78;;;21.38;;
63801;SDS011;49949;43.060;25.624;2024-01-10T04:12:54;37.88;;;19.00;;
63801;SDS011;49949;43.060;25.624;2024-01-10T04:15:20;34.10;;;16.25;;
63801;SDS011;49949;43.060;25.624;2024-01-10T04:17:46;40.72;;;16.35;;
63801;SDS011;49949;43.060;25.624;2024-01-10T04:20:11;35.35;;;15.18;;
63801;SDS011;49949;43.060;25.624;2024-01-10T04:22:37;32.10;;;15.25;;
63801;SDS011;49949;43.060;25.624;2024-01-10T04:25:05;25.30;;;14.25;;
63801;SDS011;49949;43.060;25.624;2024-01-10T04:27:32;32.60;;;16.88;;
63801;SDS011;49949;43.060;25.624;2024-01-10T04:29:58;27.70;;;15.25;;
63801;SDS011;49949;43.060;25.624;2024-01-10T04:32:24;33.35;;;15.52;;
63801;SDS011;49949;43.060;25.624;2024-01-10T04:34:49;30.00;;;15.00;;
63801;SDS011;49949;43.060;25.624;2024-01-10T04:37:15;31.63;;;15.68;;
63801;SDS011;49949;43.060;25.624;2024-01-10T04:39:41;37.60;;;16.10;;
63801;SDS011;49949;43.060;25.624;2024-01-10T04:42:12;30.38;;;15.75;;
63801;SDS011;49949;43.060;25.624;2024-01-10T04:44:38;31.80;;;14.90;;
63801;SDS011;49949;43.060;25.624;2024-01-10T04:47:04;27.50;;;13.65;;
63801;SDS011;49949;43.060;25.624;2024-01-10T04:49:30;28.38;;;14.02;;
63801;SDS011;49949;43.060;25.624;2024-01-10T04:51:56;33.53;;;12.98;;
63801;SDS011;49949;43.060;25.624;2024-01-10T04:54:21;33.13;;;14.40;;
63801;SDS011;49949;43.060;25.624;2024-01-10T04:56:47;29.48;;;13.02;;
63801;SDS011;49949;43.060;25.624;2024-01-10T04:59:13;31.20;;;14.57;;
63801;SDS011;49949;43.060;25.624;2024-01-10T05:01:38;37.92;;;17.58;;
63801;SDS011;49949;43.060;25.624;2024-01-10T05:04:04;35.22;;;17.65;;
63801;SDS011;49949;43.060;25.624;2024-01-10T05:06:30;33.45;;;17.15;;
63801;SDS011;49949;43.060;25.624;2024-01-10T05:08:56;35.75;;;17.17;;
63801;SDS011;49949;43.060;25.624;2024-01-10T05:11:23;29.65;;;15.82;;
63801;SDS011;49949;43.060;25.624;2024-01-10T05:13:50;29.30;;;14.90;;
63801;SDS011;49949;43.060;25.624;2024-01-10T05:16:16;29.55;;;15.82;;
63801;SDS011;49949;43.060;25.624;2024-01-10T05:18:42;29.55;;;15.18;;
63801;SDS011;49949;43.060;25.624;2024-01-10T05:21:08;28.15;;;15.15;;
63801;SDS011;49949;43.060;25.624;2024-01-10T05:23:34;28.25;;;14.27;;
63801;SDS011;49949;43.060;25.624;2024-01-10T05:26:01;32.33;;;15.45;;
63801;SDS011;49949;43.060;25.624;2024-01-10T05:28:27;32.47;;;15.35;;
63801;SDS011;49949;43.060;25.624;2024-01-10T05:30:53;31.20;;;14.75;;
63801;SDS011;49949;43.060;25.624;2024-01-10T05:33:19;32.28;;;15.02;;
63801;SDS011;49949;43.060;25.624;2024-01-10T05:35:45;31.30;;;14.80;;
63801;SDS011;49949;43.060;25.624;2024-01-10T05:38:11;29.13;;;14.60;;
63801;SDS011;49949;43.060;25.624;2024-01-10T05:40:37;31.20;;;14.70;;
63801;SDS011;49949;43.060;25.624;2024-01-10T05:43:02;30.27;;;13.05;;
63801;SDS011;49949;43.060;25.624;2024-01-10T05:45:28;24.50;;;11.30;;
63801;SDS011;49949;43.060;25.624;2024-01-10T05:47:54;22.00;;;11.13;;
63801;SDS011;49949;43.060;25.624;2024-01-10T05:50:20;21.27;;;10.27;;
63801;SDS011;49949;43.060;25.624;2024-01-10T05:52:46;26.20;;;12.23;;
63801;SDS011;49949;43.060;25.624;2024-01-10T05:55:12;23.10;;;11.60;;
63801;SDS011;49949;43.060;25.624;2024-01-10T05:57:38;23.50;;;12.02;;
63801;SDS011;49949;43.060;25.624;2024-01-10T06:00:05;23.27;;;11.60;;
63801;SDS011;49949;43.060;25.624;2024-01-10T06:02:37;25.17;;;11.68;;
63801;SDS011;49949;43.060;25.624;2024-01-10T06:05:07;23.35;;;12.32;;
63801;SDS011;49949;43.060;25.624;2024-01-10T06:07:37;29.33;;;15.10;;
63801;SDS011;49949;43.060;25.624;2024-01-10T06:10:04;39.15;;;18.05;;
63801;SDS011;49949;43.060;25.624;2024-01-10T06:12:30;29.75;;;13.07;;
63801;SDS011;49949;43.060;25.624;2024-01-10T06:14:56;53.55;;;21.88;;
63801;SDS011;49949;43.060;25.624;2024-01-10T06:17:22;36.67;;;17.38;;
63801;SDS011;49949;43.060;25.624;2024-01-10T06:19:49;43.90;;;20.48;;
63801;SDS011;49949;43.060;25.624;2024-01-10T06:22:15;42.50;;;20.83;;
63801;SDS011;49949;43.060;25.624;2024-01-10T06:24:41;51.00;;;21.38;;
63801;SDS011;49949;43.060;25.624;2024-01-10T06:27:08;48.95;;;22.15;;
63801;SDS011;49949;43.060;25.624;2024-01-10T06:29:34;43.53;;;19.88;;
63801;SDS011;49949;43.060;25.624;2024-01-10T06:32:01;40.20;;;19.13;;
63801;SDS011;49949;43.060;25.624;2024-01-10T06:34:28;41.15;;;18.85;;
63801;SDS011;49949;43.060;25.624;2024-01-10T06:36:53;38.97;;;19.13;;
63801;SDS011;49949;43.060;25.624;2024-01-10T06:39:19;39.42;;;18.95;;
63801;SDS011;49949;43.060;25.624;2024-01-10T06:41:48;41.38;;;19.38;;
63801;SDS011;49949;43.060;25.624;2024-01-10T06:44:14;42.10;;;19.48;;
63801;SDS011;49949;43.060;25.624;2024-01-10T06:46:42;41.08;;;18.60;;
63801;SDS011;49949;43.060;25.624;2024-01-10T06:49:09;40.22;;;18.95;;
63801;SDS011;49949;43.060;25.624;2024-01-10T06:51:35;47.65;;;20.80;;
63801;SDS011;49949;43.060;25.624;2024-01-10T06:54:00;42.90;;;19.90;;
63801;SDS011;49949;43.060;25.624;2024-01-10T06:56:31;43.45;;;21.88;;
63801;SDS011;49949;43.060;25.624;2024-01-10T06:58:58;50.90;;;22.60;;
63801;SDS011;49949;43.060;25.624;2024-01-10T07:01:25;47.05;;;22.13;;
63801;SDS011;49949;43.060;25.624;2024-01-10T07:03:52;48.72;;;23.02;;
63801;SDS011;49949;43.060;25.624;2024-01-10T07:06:19;77.15;;;36.80;;
63801;SDS011;49949;43.060;25.624;2024-01-10T07:08:45;55.15;;;25.10;;
63801;SDS011;49949;43.060;25.624;2024-01-10T07:11:12;63.10;;;29.10;;
63801;SDS011;49949;43.060;25.624;2024-01-10T07:13:38;72.13;;;31.58;;
63801;SDS011;49949;43.060;25.624;2024-01-10T07:16:05;67.03;;;28.85;;
63801;SDS011;49949;43.060;25.624;2024-01-10T07:18:31;59.92;;;28.52;;
63801;SDS011;49949;43.060;25.624;2024-01-10T07:20:57;58.53;;;26.45;;
63801;SDS011;49949;43.060;25.624;2024-01-10T07:23:23;47.83;;;24.55;;
63801;SDS011;49949;43.060;25.624;2024-01-10T07:25:49;54.65;;;25.23;;
63801;SDS011;49949;43.060;25.624;2024-01-10T07:28:15;55.47;;;25.92;;
63801;SDS011;49949;43.060;25.624;2024-01-10T07:30:41;52.42;;;26.00;;
63801;SDS011;49949;43.060;25.624;2024-01-10T07:33:06;54.42;;;24.27;;
63801;SDS011;49949;43.060;25.624;2024-01-10T07:35:33;53.42;;;26.63;;
63801;SDS011;49949;43.060;25.624;2024-01-10T07:37:58;56.25;;;26.90;;
63801;SDS011;49949;43.060;25.624;2024-01-10T07:40:24;63.30;;;27.30;;
63801;SDS011;49949;43.060;25.624;2024-01-10T07:42:50;64.85;;;28.38;;
63801;SDS011;49949;43.060;25.624;2024-01-10T07:45:16;55.47;;;27.02;;
63801;SDS011;49949;43.060;25.624;2024-01-10T07:47:41;45.13;;;21.40;;
63801;SDS011;49949;43.060;25.624;2024-01-10T07:50:10;44.47;;;20.15;;
63801;SDS011;49949;43.060;25.624;2024-01-10T07:52:39;43.33;;;18.15;;
63801;SDS011;49949;43.060;25.624;2024-01-10T07:55:05;40.10;;;18.75;;
63801;SDS011;49949;43.060;25.624;2024-01-10T07:57:34;38.97;;;15.50;;
63801;SDS011;49949;43.060;25.624;2024-01-10T08:00:01;43.25;;;16.83;;
63801;SDS011;49949;43.060;25.624;2024-01-10T08:02:29;32.95;;;15.20;;
63801;SDS011;49949;43.060;25.624;2024-01-10T08:04:59;32.50;;;14.52;;
63801;SDS011;49949;43.060;25.624;2024-01-10T08:07:25;40.03;;;15.77;;
63801;SDS011;49949;43.060;25.624;2024-01-10T08:09:51;36.90;;;16.15;;
63801;SDS011;49949;43.060;25.624;2024-01-10T08:12:16;32.85;;;14.40;;
63801;SDS011;49949;43.060;25.624;2024-01-10T08:14:42;34.08;;;14.98;;
63801;SDS011;49949;43.060;25.624;2024-01-10T08:17:10;30.88;;;13.60;;
63801;SDS011;49949;43.060;25.624;2024-01-10T08:19:36;27.05;;;12.93;;
63801;SDS011;49949;43.060;25.624;2024-01-10T08:22:02;28.70;;;11.90;;
63801;SDS011;49949;43.060;25.624;2024-01-10T08:24:29;24.55;;;12.70;;
63801;SDS011;49949;43.060;25.624;2024-01-10T08:26:55;25.00;;;11.32;;
63801;SDS011;49949;43.060;25.624;2024-01-10T08:29:21;26.70;;;11.55;;
63801;SDS011;49949;43.060;25.624;2024-01-10T08:31:47;35.95;;;18.73;;
63801;SDS011;49949;43.060;25.624;2024-01-10T08:34:13;23.30;;;11.65;;
63801;SDS011;49949;43.060;25.624;2024-01-10T08:36:39;24.77;;;11.30;;
63801;SDS011;49949;43.060;25.624;2024-01-10T08:39:05;26.38;;;10.20;;
63801;SDS011;49949;43.060;25.624;2024-01-10T08:41:31;23.48;;;10.52;;
63801;SDS011;49949;43.060;25.624;2024-01-10T08:43:58;20.42;;;9.68;;
63801;SDS011;49949;43.060;25.624;2024-01-10T08:46:24;21.50;;;9.05;;
63801;SDS011;49949;43.060;25.624;2024-01-10T08:48:50;23.67;;;8.32;;
63801;SDS011;49949;43.060;25.624;2024-01-10T08:51:16;22.15;;;9.90;;
63801;SDS011;49949;43.060;25.624;2024-01-10T08:53:42;18.00;;;7.88;;
63801;SDS011;49949;43.060;25.624;2024-01-10T08:56:08;16.58;;;8.25;;
63801;SDS011;49949;43.060;25.624;2024-01-10T08:58:35;16.38;;;6.28;;
63801;SDS011;49949;43.060;25.624;2024-01-10T09:01:01;12.30;;;5.95;;
63801;SDS011;49949;43.060;25.624;2024-01-10T09:03:29;13.05;;;6.85;;
63801;SDS011;49949;43.060;25.624;2024-01-10T09:05:55;14.00;;;7.28;;
63801;SDS011;49949;43.060;25.624;2024-01-10T09:08:20;22.38;;;13.30;;
63801;SDS011;49949;43.060;25.624;2024-01-10T09:10:46;18.00;;;9.20;;
63801;SDS011;49949;43.060;25.624;2024-01-10T09:13:14;12.10;;;6.45;;
63801;SDS011;49949;43.060;25.624;2024-01-10T09:15:40;11.35;;;6.30;;
63801;SDS011;49949;43.060;25.624;2024-01-10T09:18:06;12.43;;;5.95;;
63801;SDS011;49949;43.060;25.624;2024-01-10T09:20:31;11.48;;;5.38;;
63801;SDS011;49949;43.060;25.624;2024-01-10T09:22:57;19.33;;;5.80;;
63801;SDS011;49949;43.060;25.624;2024-01-10T09:25:25;12.45;;;6.13;;
63801;SDS011;49949;43.060;25.624;2024-01-10T09:27:51;10.18;;;4.65;;
63801;SDS011;49949;43.060;25.624;2024-01-10T09:30:17;13.02;;;5.10;;
63801;SDS011;49949;43.060;25.624;2024-01-10T09:32:43;11.43;;;5.38;;
63801;SDS011;49949;43.060;25.624;2024-01-10T09:35:10;9.63;;;4.65;;
63801;SDS011;49949;43.060;25.624;2024-01-10T09:37:35;10.98;;;4.65;;
63801;SDS011;49949;43.060;25.624;2024-01-10T09:40:01;8.55;;;4.25;;
63801;SDS011;49949;43.060;25.624;2024-01-10T09:42:27;12.05;;;5.05;;
63801;SDS011;49949;43.060;25.624;2024-01-10T09:44:58;10.80;;;4.82;;
63801;SDS011;49949;43.060;25.624;2024-01-10T09:47:24;11.63;;;4.93;;
63801;SDS011;49949;43.060;25.624;2024-01-10T09:49:50;4.90;;;3.65;;
63801;SDS011;49949;43.060;25.624;2024-01-10T09:52:20;9.65;;;4.10;;
63801;SDS011;49949;43.060;25.624;2024-01-10T09:54:48;13.38;;;5.03;;
63801;SDS011;49949;43.060;25.624;2024-01-10T09:57:21;7.05;;;3.35;;
63801;SDS011;49949;43.060;25.624;2024-01-10T09:59:49;8.95;;;4.32;;
63801;SDS011;49949;43.060;25.624;2024-01-10T10:02:16;14.50;;;7.22;;
63801;SDS011;49949;43.060;25.624;2024-01-10T10:05:07;7.10;;;4.32;;
63801;SDS011;49949;43.060;25.624;2024-01-10T10:07:47;8.68;;;4.13;;
63801;SDS011;49949;43.060;25.624;2024-01-10T10:10:18;11.18;;;4.50;;
63801;SDS011;49949;43.060;25.624;2024-01-10T10:12:48;7.38;;;3.65;;
63801;SDS011;49949;43.060;25.624;2024-01-10T10:15:18;8.65;;;4.25;;
63801;SDS011;49949;43.060;25.624;2024-01-10T10:17:47;7.30;;;3.25;;
63801;SDS011;49949;43.060;25.624;2024-01-10T10:20:20;7.75;;;3.90;;
63801;SDS011;49949;43.060;25.624;2024-01-10T10:25:50;6.63;;;3.13;;
63801;SDS011;49949;43.060;25.624;2024-01-10T10:28:15;7.50;;;3.75;;
63801;SDS011;49949;43.060;25.624;2024-01-10T10:30:41;7.45;;;3.42;;
63801;SDS011;49949;43.060;25.624;2024-01-10T10:33:07;8.20;;;3.70;;
63801;SDS011;49949;43.060;25.624;2024-01-10T10:35:34;5.90;;;3.22;;
63801;SDS011;49949;43.060;25.624;2024-01-10T10:37:59;8.07;;;3.03;;
63801;SDS011;49949;43.060;25.624;2024-01-10T10:40:25;9.27;;;3.05;;
63801;SDS011;49949;43.060;25.624;2024-01-10T10:42:54;9.07;;;3.20;;
63801;SDS011;49949;43.060;25.624;2024-01-10T10:45:21;5.85;;;3.22;;
63801;SDS011;49949;43.060;25.624;2024-01-10T10:47:58;6.05;;;3.50;;
63801;SDS011;49949;43.060;25.624;2024-01-10T10:50:35;6.93;;;3.58;;
63801;SDS011;49949;43.060;25.624;2024-01-10T10:53:04;9.05;;;4.55;;
63801;SDS011;49949;43.060;25.624;2024-01-10T10:55:31;13.18;;;3.83;;
63801;SDS011;49949;43.060;25.624;2024-01-10T10:57:59;7.55;;;3.80;;
63801;SDS011;49949;43.060;25.624;2024-01-10T11:00:29;8.35;;;4.13;;
63801;SDS011;49949;43.060;25.624;2024-01-10T11:02:56;7.75;;;4.40;;
63801;SDS011;49949;43.060;25.624;2024-01-10T11:05:24;8.18;;;4.28;;
63801;SDS011;49949;43.060;25.624;2024-01-10T11:07:52;10.02;;;5.63;;
63801;SDS011;49949;43.060;25.624;2024-01-10T11:10:37;10.38;;;5.28;;
63801;SDS011;49949;43.060;25.624;2024-01-10T11:16:01;12.50;;;5.32;;
63801;SDS011;49949;43.060;25.624;2024-01-10T11:26:07;11.63;;;5.10;;
63801;SDS011;49949;43.060;25.624;2024-01-10T11:28:35;10.50;;;5.22;;
63801;SDS011;49949;43.060;25.624;2024-01-10T11:31:02;9.63;;;5.30;;
63801;SDS011;49949;43.060;25.624;2024-01-10T11:33:31;10.07;;;4.53;;
63801;SDS011;49949;43.060;25.624;2024-01-10T11:46:35;13.27;;;5.90;;
63801;SDS011;49949;43.060;25.624;2024-01-10T11:49:07;9.32;;;4.60;;
63801;SDS011;49949;43.060;25.624;2024-01-10T11:51:35;7.95;;;4.68;;
63801;SDS011;49949;43.060;25.624;2024-01-10T11:54:01;12.10;;;6.10;;
63801;SDS011;49949;43.060;25.624;2024-01-10T11:56:37;13.35;;;6.10;;
63801;SDS011;49949;43.060;25.624;2024-01-10T11:59:08;12.50;;;6.00;;
63801;SDS011;49949;43.060;25.624;2024-01-10T12:01:41;10.98;;;5.75;;
63801;SDS011;49949;43.060;25.624;2024-01-10T12:04:07;13.40;;;4.25;;
63801;SDS011;49949;43.060;25.624;2024-01-10T12:06:36;8.95;;;5.18;;
63801;SDS011;49949;43.060;25.624;2024-01-10T12:09:03;10.00;;;3.75;;
63801;SDS011;49949;43.060;25.624;2024-01-10T12:11:36;9.23;;;4.57;;
63801;SDS011;49949;43.060;25.624;2024-01-10T12:14:06;6.95;;;3.55;;
63801;SDS011;49949;43.060;25.624;2024-01-10T12:16:33;6.20;;;4.03;;
63801;SDS011;49949;43.060;25.624;2024-01-10T12:18:59;9.45;;;5.18;;
63801;SDS011;49949;43.060;25.624;2024-01-10T12:21:25;8.70;;;4.38;;
63801;SDS011;49949;43.060;25.624;2024-01-10T12:23:51;8.00;;;4.70;;
63801;SDS011;49949;43.060;25.624;2024-01-10T12:26:16;9.07;;;4.47;;
63801;SDS011;49949;43.060;25.624;2024-01-10T12:28:57;6.88;;;3.72;;
63801;SDS011;49949;43.060;25.624;2024-01-10T12:31:26;7.78;;;3.85;;
63801;SDS011;49949;43.060;25.624;2024-01-10T12:33:54;7.65;;;3.88;;
63801;SDS011;49949;43.060;25.624;2024-01-10T12:36:20;11.23;;;4.30;;
63801;SDS011;49949;43.060;25.624;2024-01-10T12:38:46;10.43;;;4.50;;
63801;SDS011;49949;43.060;25.624;2024-01-10T12:41:14;9.63;;;4.30;;
63801;SDS011;49949;43.060;25.624;2024-01-10T12:43:41;10.10;;;4.22;;
63801;SDS011;49949;43.060;25.624;2024-01-10T12:46:10;8.80;;;3.85;;
63801;SDS011;49949;43.060;25.624;2024-01-10T12:48:40;9.50;;;4.00;;
63801;SDS011;49949;43.060;25.624;2024-01-10T12:51:10;6.88;;;3.95;;
63801;SDS011;49949;43.060;25.624;2024-01-10T12:53:38;8.07;;;4.35;;
63801;SDS011;49949;43.060;25.624;2024-01-10T12:56:08;5.45;;;3.35;;
63801;SDS011;49949;43.060;25.624;2024-01-10T12:58:39;10.40;;;4.57;;
63801;SDS011;49949;43.060;25.624;2024-01-10T13:01:09;11.77;;;4.32;;
63801;SDS011;49949;43.060;25.624;2024-01-10T13:03:37;7.68;;;4.10;;
63801;SDS011;49949;43.060;25.624;2024-01-10T13:06:03;7.07;;;3.88;;
63801;SDS011;49949;43.060;25.624;2024-01-10T13:08:30;8.82;;;4.75;;
63801;SDS011;49949;43.060;25.624;2024-01-10T13:10:57;10.60;;;4.32;;
63801;SDS011;49949;43.060;25.624;2024-01-10T13:13:22;16.92;;;7.53;;
63801;SDS011;49949;43.060;25.624;2024-01-10T13:15:49;17.40;;;6.63;;
63801;SDS011;49949;43.060;25.624;2024-01-10T13:18:16;15.27;;;6.55;;
63801;SDS011;49949;43.060;25.624;2024-01-10T13:20:42;15.90;;;6.70;;
63801;SDS011;49949;43.060;25.624;2024-01-10T13:23:08;14.70;;;6.35;;
63801;SDS011;49949;43.060;25.624;2024-01-10T13:25:34;12.50;;;6.25;;
63801;SDS011;49949;43.060;25.624;2024-01-10T13:28:02;14.27;;;6.53;;
63801;SDS011;49949;43.060;25.624;2024-01-10T13:30:28;10.95;;;5.32;;
63801;SDS011;49949;43.060;25.624;2024-01-10T13:32:54;11.60;;;5.90;;
63801;SDS011;49949;43.060;25.624;2024-01-10T13:35:20;15.88;;;5.88;;
63801;SDS011;49949;43.060;25.624;2024-01-10T13:37:45;14.35;;;6.20;;
63801;SDS011;49949;43.060;25.624;2024-01-10T13:40:11;12.32;;;6.50;;
63801;SDS011;49949;43.060;25.624;2024-01-10T13:42:40;15.95;;;6.45;;
63801;SDS011;49949;43.060;25.624;2024-01-10T13:45:07;13.25;;;6.13;;
63801;SDS011;49949;43.060;25.624;2024-01-10T13:47:36;11.85;;;6.03;;
63801;SDS011;49949;43.060;25.624;2024-01-10T13:50:02;12.38;;;5.38;;
63801;SDS011;49949;43.060;25.624;2024-01-10T13:52:32;10.93;;;6.25;;
63801;SDS011;49949;43.060;25.624;2024-01-10T13:54:58;16.33;;;5.15;;
63801;SDS011;49949;43.060;25.624;2024-01-10T13:57:24;12.75;;;5.45;;
63801;SDS011;49949;43.060;25.624;2024-01-10T13:59:50;10.20;;;4.93;;
63801;SDS011;49949;43.060;25.624;2024-01-10T14:02:16;16.88;;;5.82;;
63801;SDS011;49949;43.060;25.624;2024-01-10T14:04:44;8.70;;;4.50;;
63801;SDS011;49949;43.060;25.624;2024-01-10T14:07:10;10.73;;;4.97;;
63801;SDS011;49949;43.060;25.624;2024-01-10T14:09:36;18.08;;;5.30;;
63801;SDS011;49949;43.060;25.624;2024-01-10T14:12:01;12.30;;;4.65;;
63801;SDS011;49949;43.060;25.624;2024-01-10T14:14:27;8.90;;;4.35;;
63801;SDS011;49949;43.060;25.624;2024-01-10T14:16:53;10.18;;;5.40;;
63801;SDS011;49949;43.060;25.624;2024-01-10T14:19:19;11.85;;;5.45;;
63801;SDS011;49949;43.060;25.624;2024-01-10T14:21:45;11.25;;;5.70;;
63801;SDS011;49949;43.060;25.624;2024-01-10T14:24:11;10.15;;;5.40;;
63801;SDS011;49949;43.060;25.624;2024-01-10T14:26:37;10.57;;;4.95;;
63801;SDS011;49949;43.060;25.624;2024-01-10T14:29:03;9.30;;;5.03;;
63801;SDS011;49949;43.060;25.624;2024-01-10T14:31:29;9.43;;;4.72;;
63801;SDS011;49949;43.060;25.624;2024-01-10T14:33:55;11.27;;;5.18;;
63801;SDS011;49949;43.060;25.624;2024-01-10T14:36:22;10.90;;;5.57;;
63801;SDS011;49949;43.060;25.624;2024-01-10T14:38:47;14.90;;;5.80;;
63801;SDS011;49949;43.060;25.624;2024-01-10T14:41:13;10.18;;;4.70;;